sensor_id;sensor_type;location;lat;lon;timestamp;temperature;humidity
20700;DHT22;10511;51.232;9.420;2023-08-30T00:02:19;13.30;99.90
20700;DHT22;10511;51.232;9.420;2023-08-30T00:04:46;13.30;99.90
20700;DHT22;10511;51.232;9.420;2023-08-30T00:07:14;13.40;99.90
20700;DHT22;10511;51.232;9.420;2023-08-30T00:09:41;13.50;99.90
20700;DHT22;10511;51.232;9.420;2023-08-30T00:12:08;13.40;99.90
20700;DHT22;10511;51.232;9.420;2023-08-30T00:14:35;13.20;99.90
20700;DHT22;10511;51.232;9.420;2023-08-30T00:17:02;13.20;99.90
20700;DHT22;10511;51.232;9.420;2023-08-30T00:19:29;13.20;99.90
20700;DHT22;10511;51.232;9.420;2023-08-30T00:21:57;13.40;99.90
20700;DHT22;10511;51.232;9.420;2023-08-30T00:24:25;13.50;99.90
20700;DHT22;10511;51.232;9.420;2023-08-30T00:26:52;13.60;99.90
20700;DHT22;10511;51.232;9.420;2023-08-30T00:29:19;13.70;99.90
20700;DHT22;10511;51.232;9.420;2023-08-30T00:31:46;13.70;99.90
20700;DHT22;10511;51.232;9.420;2023-08-30T00:34:13;13.80;99.90
20700;DHT22;10511;51.232;9.420;2023-08-30T00:36:40;13.80;99.90
20700;DHT22;10511;51.232;9.420;2023-08-30T00:39:07;13.90;99.90
20700;DHT22;10511;51.232;9.420;2023-08-30T00:41:36;13.90;99.90
20700;DHT22;10511;51.232;9.420;2023-08-30T00:44:03;13.80;99.90
20700;DHT22;10511;51.232;9.420;2023-08-30T00:46:30;13.70;99.90
20700;DHT22;10511;51.232;9.420;2023-08-30T00:48:58;13.60;99.90
20700;DHT22;10511;51.232;9.420;2023-08-30T00:51:26;13.50;99.90
20700;DHT22;10511;51.232;9.420;2023-08-30T00:53:54;13.30;99.90
20700;DHT22;10511;51.232;9.420;2023-08-30T00:56:21;13.30;99.90
20700;DHT22;10511;51.232;9.420;2023-08-30T00:58:50;13.30;99.90
20700;DHT22;10511;51.232;9.420;2023-08-30T01:01:18;13.10;99.90
20700;DHT22;10511;51.232;9.420;2023-08-30T01:03:45;13.00;99.90
20700;DHT22;10511;51.232;9.420;2023-08-30T01:06:12;12.90;99.90
20700;DHT22;10511;51.232;9.420;2023-08-30T01:08:40;12.90;99.90
20700;DHT22;10511;51.232;9.420;2023-08-30T01:11:13;12.90;99.90
20700;DHT22;10511;51.232;9.420;2023-08-30T01:13:47;13.00;99.90
20700;DHT22;10511;51.232;9.420;2023-08-30T01:16:19;13.10;99.90
20700;DHT22;10511;51.232;9.420;2023-08-30T01:18:47;13.20;99.90
20700;DHT22;10511;51.232;9.420;2023-08-30T01:21:23;13.30;99.90
20700;DHT22;10511;51.232;9.420;2023-08-30T01:23:58;13.40;99.90
20700;DHT22;10511;51.232;9.420;2023-08-30T01:26:33;13.40;99.90
20700;DHT22;10511;51.232;9.420;2023-08-30T01:29:05;13.40;99.90
20700;DHT22;10511;51.232;9.420;2023-08-30T01:31:33;13.40;99.90
20700;DHT22;10511;51.232;9.420;2023-08-30T01:34:01;13.50;99.90
20700;DHT22;10511;51.232;9.420;2023-08-30T01:36:30;13.50;99.90
20700;DHT22;10511;51.232;9.420;2023-08-30T01:38:58;13.50;99.90
20700;DHT22;10511;51.232;9.420;2023-08-30T01:41:26;13.40;99.90
20700;DHT22;10511;51.232;9.420;2023-08-30T01:43:54;13.30;99.90
20700;DHT22;10511;51.232;9.420;2023-08-30T01:46:24;13.10;99.90
20700;DHT22;10511;51.232;9.420;2023-08-30T01:48:51;12.70;99.90
20700;DHT22;10511;51.232;9.420;2023-08-30T01:51:19;12.50;99.90
20700;DHT22;10511;51.232;9.420;2023-08-30T01:53:46;12.40;99.90
20700;DHT22;10511;51.232;9.420;2023-08-30T01:56:14;12.50;99.90
20700;DHT22;10511;51.232;9.420;2023-08-30T01:58:41;12.50;99.90
20700;DHT22;10511;51.232;9.420;2023-08-30T02:01:08;12.70;99.90
20700;DHT22;10511;51.232;9.420;2023-08-30T02:03:36;12.80;99.90
20700;DHT22;10511;51.232;9.420;2023-08-30T02:06:07;12.80;99.90
20700;DHT22;10511;51.232;9.420;2023-08-30T02:08:38;13.00;99.90
20700;DHT22;10511;51.232;9.420;2023-08-30T02:11:11;13.10;99.90
20700;DHT22;10511;51.232;9.420;2023-08-30T02:13:39;13.30;99.90
20700;DHT22;10511;51.232;9.420;2023-08-30T02:16:08;13.40;99.90
20700;DHT22;10511;51.232;9.420;2023-08-30T02:18:37;13.40;99.90
20700;DHT22;10511;51.232;9.420;2023-08-30T02:21:04;13.20;99.90
20700;DHT22;10511;51.232;9.420;2023-08-30T02:23:31;12.90;99.90
20700;DHT22;10511;51.232;9.420;2023-08-30T02:25:58;12.70;99.90
20700;DHT22;10511;51.232;9.420;2023-08-30T02:28:25;12.50;99.90
20700;DHT22;10511;51.232;9.420;2023-08-30T02:30:53;12.50;99.90
20700;DHT22;10511;51.232;9.420;2023-08-30T02:33:20;12.40;99.90
20700;DHT22;10511;51.232;9.420;2023-08-30T02:35:49;12.30;99.90
20700;DHT22;10511;51.232;9.420;2023-08-30T02:38:16;12.20;99.90
20700;DHT22;10511;51.232;9.420;2023-08-30T02:40:43;12.20;99.90
20700;DHT22;10511;51.232;9.420;2023-08-30T02:43:10;12.30;99.90
20700;DHT22;10511;51.232;9.420;2023-08-30T02:45:37;12.40;99.90
20700;DHT22;10511;51.232;9.420;2023-08-30T02:48:05;12.50;99.90
20700;DHT22;10511;51.232;9.420;2023-08-30T02:50:32;12.70;99.90
20700;DHT22;10511;51.232;9.420;2023-08-30T02:53:00;12.80;99.90
20700;DHT22;10511;51.232;9.420;2023-08-30T02:55:27;12.90;99.90
20700;DHT22;10511;51.232;9.420;2023-08-30T02:57:54;13.00;99.90
20700;DHT22;10511;51.232;9.420;2023-08-30T03:00:21;13.10;99.90
20700;DHT22;10511;51.232;9.420;2023-08-30T03:02:48;13.20;99.90
20700;DHT22;10511;51.232;9.420;2023-08-30T03:05:15;13.40;99.90
20700;DHT22;10511;51.232;9.420;2023-08-30T03:07:42;13.40;99.90
20700;DHT22;10511;51.232;9.420;2023-08-30T03:10:12;13.30;99.90
20700;DHT22;10511;51.232;9.420;2023-08-30T03:12:39;13.20;99.90
20700;DHT22;10511;51.232;9.420;2023-08-30T03:15:06;13.20;99.90
20700;DHT22;10511;51.232;9.420;2023-08-30T03:17:35;13.30;99.90
20700;DHT22;10511;51.232;9.420;2023-08-30T03:20:02;13.30;99.90
20700;DHT22;10511;51.232;9.420;2023-08-30T03:22:30;13.40;99.90
20700;DHT22;10511;51.232;9.420;2023-08-30T03:24:58;13.40;99.90
20700;DHT22;10511;51.232;9.420;2023-08-30T03:27:29;13.30;99.90
20700;DHT22;10511;51.232;9.420;2023-08-30T03:29:56;13.10;99.90
20700;DHT22;10511;51.232;9.420;2023-08-30T03:32:23;12.90;99.90
20700;DHT22;10511;51.232;9.420;2023-08-30T03:34:50;12.80;99.90
20700;DHT22;10511;51.232;9.420;2023-08-30T03:37:17;12.60;99.90
20700;DHT22;10511;51.232;9.420;2023-08-30T03:39:44;12.70;99.90
20700;DHT22;10511;51.232;9.420;2023-08-30T03:42:11;12.90;99.90
20700;DHT22;10511;51.232;9.420;2023-08-30T03:44:39;12.90;99.90
20700;DHT22;10511;51.232;9.420;2023-08-30T03:47:06;13.00;99.90
20700;DHT22;10511;51.232;9.420;2023-08-30T03:49:34;13.10;99.90
20700;DHT22;10511;51.232;9.420;2023-08-30T03:52:01;13.30;99.90
20700;DHT22;10511;51.232;9.420;2023-08-30T03:54:28;13.20;99.90
20700;DHT22;10511;51.232;9.420;2023-08-30T03:56:55;13.20;99.90
20700;DHT22;10511;51.232;9.420;2023-08-30T03:59:22;13.20;99.90
20700;DHT22;10511;51.232;9.420;2023-08-30T04:01:52;13.20;99.90
20700;DHT22;10511;51.232;9.420;2023-08-30T04:04:19;13.40;99.90
20700;DHT22;10511;51.232;9.420;2023-08-30T04:06:46;13.30;99.90
20700;DHT22;10511;51.232;9.420;2023-08-30T04:09:12;13.30;99.90
20700;DHT22;10511;51.232;9.420;2023-08-30T04:11:39;13.30;99.90
20700;DHT22;10511;51.232;9.420;2023-08-30T04:14:07;13.30;99.90
20700;DHT22;10511;51.232;9.420;2023-08-30T04:16:35;13.30;99.90
20700;DHT22;10511;51.232;9.420;2023-08-30T04:19:03;13.20;99.90
20700;DHT22;10511;51.232;9.420;2023-08-30T04:21:30;13.20;99.90
20700;DHT22;10511;51.232;9.420;2023-08-30T04:23:57;13.30;99.90
20700;DHT22;10511;51.232;9.420;2023-08-30T04:26:24;13.30;99.90
20700;DHT22;10511;51.232;9.420;2023-08-30T04:28:51;13.20;99.90
20700;DHT22;10511;51.232;9.420;2023-08-30T04:31:18;13.20;99.90
20700;DHT22;10511;51.232;9.420;2023-08-30T04:33:45;13.20;99.90
20700;DHT22;10511;51.232;9.420;2023-08-30T04:36:13;13.20;99.90
20700;DHT22;10511;51.232;9.420;2023-08-30T04:38:40;13.30;99.90
20700;DHT22;10511;51.232;9.420;2023-08-30T04:41:07;13.30;99.90
20700;DHT22;10511;51.232;9.420;2023-08-30T04:43:34;13.30;99.90
20700;DHT22;10511;51.232;9.420;2023-08-30T04:46:00;13.30;99.90
20700;DHT22;10511;51.232;9.420;2023-08-30T04:48:28;13.20;99.90
20700;DHT22;10511;51.232;9.420;2023-08-30T04:50:59;13.30;99.90
20700;DHT22;10511;51.232;9.420;2023-08-30T04:53:27;13.40;99.90
20700;DHT22;10511;51.232;9.420;2023-08-30T04:55:54;13.40;99.90
20700;DHT22;10511;51.232;9.420;2023-08-30T04:58:22;13.40;99.90
20700;DHT22;10511;51.232;9.420;2023-08-30T05:00:49;13.40;99.90
20700;DHT22;10511;51.232;9.420;2023-08-30T05:03:15;13.40;99.90
20700;DHT22;10511;51.232;9.420;2023-08-30T05:05:45;13.40;99.90
20700;DHT22;10511;51.232;9.420;2023-08-30T05:08:12;13.50;99.90
20700;DHT22;10511;51.232;9.420;2023-08-30T05:10:40;13.50;99.90
20700;DHT22;10511;51.232;9.420;2023-08-30T05:13:08;13.50;99.90
20700;DHT22;10511;51.232;9.420;2023-08-30T05:15:35;13.40;99.90
20700;DHT22;10511;51.232;9.420;2023-08-30T05:18:03;13.50;99.90
20700;DHT22;10511;51.232;9.420;2023-08-30T05:20:30;13.60;99.90
20700;DHT22;10511;51.232;9.420;2023-08-30T05:22:57;13.50;99.90
20700;DHT22;10511;51.232;9.420;2023-08-30T05:25:24;13.50;99.90
20700;DHT22;10511;51.232;9.420;2023-08-30T05:27:52;13.50;99.90
20700;DHT22;10511;51.232;9.420;2023-08-30T05:30:19;13.50;99.90
20700;DHT22;10511;51.232;9.420;2023-08-30T05:32:46;13.60;99.90
20700;DHT22;10511;51.232;9.420;2023-08-30T05:35:13;13.50;99.90
20700;DHT22;10511;51.232;9.420;2023-08-30T05:37:40;13.40;99.90
20700;DHT22;10511;51.232;9.420;2023-08-30T05:40:08;13.40;99.90
20700;DHT22;10511;51.232;9.420;2023-08-30T05:42:35;13.40;99.90
20700;DHT22;10511;51.232;9.420;2023-08-30T05:45:04;13.30;99.90
20700;DHT22;10511;51.232;9.420;2023-08-30T05:47:31;13.30;99.90
20700;DHT22;10511;51.232;9.420;2023-08-30T05:49:58;13.20;99.90
20700;DHT22;10511;51.232;9.420;2023-08-30T05:52:25;13.20;99.90
20700;DHT22;10511;51.232;9.420;2023-08-30T05:54:52;13.20;99.90
20700;DHT22;10511;51.232;9.420;2023-08-30T05:57:19;13.20;99.90
20700;DHT22;10511;51.232;9.420;2023-08-30T05:59:48;13.30;99.90
20700;DHT22;10511;51.232;9.420;2023-08-30T06:02:16;13.30;99.90
20700;DHT22;10511;51.232;9.420;2023-08-30T06:04:43;13.30;99.90
20700;DHT22;10511;51.232;9.420;2023-08-30T06:07:10;13.30;99.90
20700;DHT22;10511;51.232;9.420;2023-08-30T06:09:37;13.30;99.90
20700;DHT22;10511;51.232;9.420;2023-08-30T06:12:05;13.30;99.90
20700;DHT22;10511;51.232;9.420;2023-08-30T06:14:32;13.40;99.90
20700;DHT22;10511;51.232;9.420;2023-08-30T06:16:59;13.40;99.90
20700;DHT22;10511;51.232;9.420;2023-08-30T06:19:27;13.30;99.90
20700;DHT22;10511;51.232;9.420;2023-08-30T06:21:54;13.30;99.90
20700;DHT22;10511;51.232;9.420;2023-08-30T06:24:22;13.40;99.90
20700;DHT22;10511;51.232;9.420;2023-08-30T06:26:49;13.50;99.90
20700;DHT22;10511;51.232;9.420;2023-08-30T06:29:16;13.40;99.90
20700;DHT22;10511;51.232;9.420;2023-08-30T06:31:43;13.10;99.90
20700;DHT22;10511;51.232;9.420;2023-08-30T06:34:10;13.00;99.90
20700;DHT22;10511;51.232;9.420;2023-08-30T06:36:39;12.90;99.90
20700;DHT22;10511;51.232;9.420;2023-08-30T06:39:06;12.80;99.90
20700;DHT22;10511;51.232;9.420;2023-08-30T06:41:33;12.70;99.90
20700;DHT22;10511;51.232;9.420;2023-08-30T06:44:00;12.60;99.90
20700;DHT22;10511;51.232;9.420;2023-08-30T06:46:27;12.60;99.90
20700;DHT22;10511;51.232;9.420;2023-08-30T06:48:53;12.60;99.90
20700;DHT22;10511;51.232;9.420;2023-08-30T06:51:20;12.60;99.90
20700;DHT22;10511;51.232;9.420;2023-08-30T06:53:49;12.70;99.90
20700;DHT22;10511;51.232;9.420;2023-08-30T06:56:16;12.90;99.90
20700;DHT22;10511;51.232;9.420;2023-08-30T06:58:42;13.00;99.90
20700;DHT22;10511;51.232;9.420;2023-08-30T07:01:09;13.10;99.90
20700;DHT22;10511;51.232;9.420;2023-08-30T07:03:36;13.20;99.90
20700;DHT22;10511;51.232;9.420;2023-08-30T07:06:05;13.20;99.90
20700;DHT22;10511;51.232;9.420;2023-08-30T07:08:32;13.30;99.90
20700;DHT22;10511;51.232;9.420;2023-08-30T07:11:01;13.30;99.90
20700;DHT22;10511;51.232;9.420;2023-08-30T07:13:28;13.40;99.90
20700;DHT22;10511;51.232;9.420;2023-08-30T07:15:55;13.40;99.90
20700;DHT22;10511;51.232;9.420;2023-08-30T07:18:21;13.40;99.90
20700;DHT22;10511;51.232;9.420;2023-08-30T07:20:48;13.40;99.90
20700;DHT22;10511;51.232;9.420;2023-08-30T07:23:15;13.30;99.90
20700;DHT22;10511;51.232;9.420;2023-08-30T07:25:42;13.30;99.90
20700;DHT22;10511;51.232;9.420;2023-08-30T07:28:11;13.30;99.90
20700;DHT22;10511;51.232;9.420;2023-08-30T07:30:37;13.30;99.90
20700;DHT22;10511;51.232;9.420;2023-08-30T07:33:04;13.40;99.90
20700;DHT22;10511;51.232;9.420;2023-08-30T07:35:32;13.50;99.90
20700;DHT22;10511;51.232;9.420;2023-08-30T07:37:59;13.50;99.90
20700;DHT22;10511;51.232;9.420;2023-08-30T07:40:26;13.50;99.90
20700;DHT22;10511;51.232;9.420;2023-08-30T07:42:54;13.60;99.90
20700;DHT22;10511;51.232;9.420;2023-08-30T07:45:23;13.60;99.90
20700;DHT22;10511;51.232;9.420;2023-08-30T07:47:49;13.70;99.90
20700;DHT22;10511;51.232;9.420;2023-08-30T07:50:16;13.70;99.90
20700;DHT22;10511;51.232;9.420;2023-08-30T07:52:45;13.80;99.90
20700;DHT22;10511;51.232;9.420;2023-08-30T07:55:13;13.80;99.90
20700;DHT22;10511;51.232;9.420;2023-08-30T07:57:40;13.80;99.90
20700;DHT22;10511;51.232;9.420;2023-08-30T08:00:08;13.90;99.90
20700;DHT22;10511;51.232;9.420;2023-08-30T08:02:36;13.90;99.90
20700;DHT22;10511;51.232;9.420;2023-08-30T08:05:03;13.90;99.90
20700;DHT22;10511;51.232;9.420;2023-08-30T08:07:30;14.00;99.90
20700;DHT22;10511;51.232;9.420;2023-08-30T08:09:57;14.00;99.90
20700;DHT22;10511;51.232;9.420;2023-08-30T08:12:26;14.00;99.90
20700;DHT22;10511;51.232;9.420;2023-08-30T08:14:53;14.10;99.90
20700;DHT22;10511;51.232;9.420;2023-08-30T08:17:20;14.10;99.90
20700;DHT22;10511;51.232;9.420;2023-08-30T08:19:48;14.20;99.90
20700;DHT22;10511;51.232;9.420;2023-08-30T08:22:15;14.30;99.90
20700;DHT22;10511;51.232;9.420;2023-08-30T08:24:42;14.30;99.90
20700;DHT22;10511;51.232;9.420;2023-08-30T08:27:11;14.40;99.90
20700;DHT22;10511;51.232;9.420;2023-08-30T08:29:38;14.50;99.90
20700;DHT22;10511;51.232;9.420;2023-08-30T08:32:05;14.50;99.90
20700;DHT22;10511;51.232;9.420;2023-08-30T08:34:33;14.60;99.90
20700;DHT22;10511;51.232;9.420;2023-08-30T08:37:02;14.70;99.90
20700;DHT22;10511;51.232;9.420;2023-08-30T08:39:30;14.80;99.90
20700;DHT22;10511;51.232;9.420;2023-08-30T08:41:59;14.80;99.90
20700;DHT22;10511;51.232;9.420;2023-08-30T08:44:27;14.90;99.90
20700;DHT22;10511;51.232;9.420;2023-08-30T08:46:56;15.00;99.90
20700;DHT22;10511;51.232;9.420;2023-08-30T08:49:25;15.20;99.90
20700;DHT22;10511;51.232;9.420;2023-08-30T08:51:54;15.40;99.90
20700;DHT22;10511;51.232;9.420;2023-08-30T08:54:23;15.60;99.90
20700;DHT22;10511;51.232;9.420;2023-08-30T08:56:50;15.70;99.90
20700;DHT22;10511;51.232;9.420;2023-08-30T08:59:19;15.80;99.90
20700;DHT22;10511;51.232;9.420;2023-08-30T09:01:46;15.90;99.90
20700;DHT22;10511;51.232;9.420;2023-08-30T09:04:13;15.90;99.90
20700;DHT22;10511;51.232;9.420;2023-08-30T09:06:40;16.00;99.90
20700;DHT22;10511;51.232;9.420;2023-08-30T09:09:08;16.20;99.90
20700;DHT22;10511;51.232;9.420;2023-08-30T09:11:37;16.20;99.90
20700;DHT22;10511;51.232;9.420;2023-08-30T09:14:04;16.30;99.90
20700;DHT22;10511;51.232;9.420;2023-08-30T09:16:31;16.30;99.90
20700;DHT22;10511;51.232;9.420;2023-08-30T09:18:58;16.40;99.90
20700;DHT22;10511;51.232;9.420;2023-08-30T09:21:26;16.50;99.90
20700;DHT22;10511;51.232;9.420;2023-08-30T09:24:00;16.50;99.90
20700;DHT22;10511;51.232;9.420;2023-08-30T09:26:29;16.60;99.90
20700;DHT22;10511;51.232;9.420;2023-08-30T09:29:02;16.70;99.90
20700;DHT22;10511;51.232;9.420;2023-08-30T09:31:33;16.90;99.90
20700;DHT22;10511;51.232;9.420;2023-08-30T09:34:02;16.90;99.90
20700;DHT22;10511;51.232;9.420;2023-08-30T09:36:33;16.80;99.90
20700;DHT22;10511;51.232;9.420;2023-08-30T09:39:04;16.90;99.90
20700;DHT22;10511;51.232;9.420;2023-08-30T09:41:31;17.00;99.90
20700;DHT22;10511;51.232;9.420;2023-08-30T09:43:59;17.00;99.90
20700;DHT22;10511;51.232;9.420;2023-08-30T09:46:27;17.00;99.90
20700;DHT22;10511;51.232;9.420;2023-08-30T09:48:55;17.10;99.90
20700;DHT22;10511;51.232;9.420;2023-08-30T09:51:24;17.10;99.90
20700;DHT22;10511;51.232;9.420;2023-08-30T09:53:54;17.20;99.90
20700;DHT22;10511;51.232;9.420;2023-08-30T09:56:26;17.30;99.90
20700;DHT22;10511;51.232;9.420;2023-08-30T09:58:54;17.30;99.90
20700;DHT22;10511;51.232;9.420;2023-08-30T10:01:21;17.40;99.90
20700;DHT22;10511;51.232;9.420;2023-08-30T10:03:50;17.40;99.90
20700;DHT22;10511;51.232;9.420;2023-08-30T10:06:18;17.40;99.90
20700;DHT22;10511;51.232;9.420;2023-08-30T10:08:49;17.40;99.90
20700;DHT22;10511;51.232;9.420;2023-08-30T10:11:18;17.50;99.90
20700;DHT22;10511;51.232;9.420;2023-08-30T10:13:47;17.50;99.90
20700;DHT22;10511;51.232;9.420;2023-08-30T10:16:19;17.50;99.90
20700;DHT22;10511;51.232;9.420;2023-08-30T10:18:47;17.50;99.90
20700;DHT22;10511;51.232;9.420;2023-08-30T10:21:19;17.50;99.90
20700;DHT22;10511;51.232;9.420;2023-08-30T10:23:49;17.60;99.90
20700;DHT22;10511;51.232;9.420;2023-08-30T10:26:21;17.70;99.90
20700;DHT22;10511;51.232;9.420;2023-08-30T10:28:49;17.70;99.90
20700;DHT22;10511;51.232;9.420;2023-08-30T10:31:17;17.70;99.90
20700;DHT22;10511;51.232;9.420;2023-08-30T10:33:47;17.80;99.90
20700;DHT22;10511;51.232;9.420;2023-08-30T10:36:22;17.90;99.90
20700;DHT22;10511;51.232;9.420;2023-08-30T10:38:50;18.00;99.90
20700;DHT22;10511;51.232;9.420;2023-08-30T10:41:21;18.00;99.90
20700;DHT22;10511;51.232;9.420;2023-08-30T10:43:52;18.10;99.90
20700;DHT22;10511;51.232;9.420;2023-08-30T10:46:31;18.10;99.90
20700;DHT22;10511;51.232;9.420;2023-08-30T10:49:09;18.40;99.90
20700;DHT22;10511;51.232;9.420;2023-08-30T10:51:38;18.70;99.90
20700;DHT22;10511;51.232;9.420;2023-08-30T10:54:12;18.70;99.90
20700;DHT22;10511;51.232;9.420;2023-08-30T10:56:48;18.80;99.90
20700;DHT22;10511;51.232;9.420;2023-08-30T10:59:18;18.80;99.90
20700;DHT22;10511;51.232;9.420;2023-08-30T11:01:47;18.80;99.90
20700;DHT22;10511;51.232;9.420;2023-08-30T11:04:15;18.90;99.90
20700;DHT22;10511;51.232;9.420;2023-08-30T11:06:46;19.00;99.90
20700;DHT22;10511;51.232;9.420;2023-08-30T11:09:14;19.00;99.90
20700;DHT22;10511;51.232;9.420;2023-08-30T11:11:43;18.80;99.90
20700;DHT22;10511;51.232;9.420;2023-08-30T11:14:10;18.60;99.90
20700;DHT22;10511;51.232;9.420;2023-08-30T11:16:38;18.70;99.90
20700;DHT22;10511;51.232;9.420;2023-08-30T11:19:06;18.80;99.90
20700;DHT22;10511;51.232;9.420;2023-08-30T11:21:35;19.00;99.90
20700;DHT22;10511;51.232;9.420;2023-08-30T11:24:05;19.00;99.90
20700;DHT22;10511;51.232;9.420;2023-08-30T11:26:32;19.10;99.90
20700;DHT22;10511;51.232;9.420;2023-08-30T11:29:04;19.10;99.90
20700;DHT22;10511;51.232;9.420;2023-08-30T11:31:31;19.10;99.90
20700;DHT22;10511;51.232;9.420;2023-08-30T11:33:58;19.10;99.90
20700;DHT22;10511;51.232;9.420;2023-08-30T11:36:27;18.80;99.90
20700;DHT22;10511;51.232;9.420;2023-08-30T11:38:55;18.70;99.90
20700;DHT22;10511;51.232;9.420;2023-08-30T11:41:24;18.60;99.90
20700;DHT22;10511;51.232;9.420;2023-08-30T11:43:51;18.60;99.90
20700;DHT22;10511;51.232;9.420;2023-08-30T11:46:19;18.50;99.90
20700;DHT22;10511;51.232;9.420;2023-08-30T11:48:48;18.60;99.90
20700;DHT22;10511;51.232;9.420;2023-08-30T11:51:16;18.60;99.90
20700;DHT22;10511;51.232;9.420;2023-08-30T11:53:45;18.70;99.90
20700;DHT22;10511;51.232;9.420;2023-08-30T11:56:12;18.90;99.90
20700;DHT22;10511;51.232;9.420;2023-08-30T11:58:41;19.20;99.90
20700;DHT22;10511;51.232;9.420;2023-08-30T12:01:09;19.30;99.90
20700;DHT22;10511;51.232;9.420;2023-08-30T12:03:36;19.30;99.90
20700;DHT22;10511;51.232;9.420;2023-08-30T12:06:09;19.30;99.90
20700;DHT22;10511;51.232;9.420;2023-08-30T12:08:36;19.20;99.90
20700;DHT22;10511;51.232;9.420;2023-08-30T12:11:03;19.60;99.90
20700;DHT22;10511;51.232;9.420;2023-08-30T12:13:33;19.50;99.90
20700;DHT22;10511;51.232;9.420;2023-08-30T12:16:02;19.50;99.90
20700;DHT22;10511;51.232;9.420;2023-08-30T12:18:31;19.40;99.90
20700;DHT22;10511;51.232;9.420;2023-08-30T12:20:59;19.20;99.90
20700;DHT22;10511;51.232;9.420;2023-08-30T12:23:28;19.10;99.90
20700;DHT22;10511;51.232;9.420;2023-08-30T12:25:59;19.00;99.90
20700;DHT22;10511;51.232;9.420;2023-08-30T12:28:27;18.90;99.90
20700;DHT22;10511;51.232;9.420;2023-08-30T12:30:55;18.90;99.90
20700;DHT22;10511;51.232;9.420;2023-08-30T12:33:24;18.90;99.90
20700;DHT22;10511;51.232;9.420;2023-08-30T12:35:52;18.90;99.90
20700;DHT22;10511;51.232;9.420;2023-08-30T12:38:19;18.80;99.90
20700;DHT22;10511;51.232;9.420;2023-08-30T12:40:47;18.80;99.90
20700;DHT22;10511;51.232;9.420;2023-08-30T12:43:15;18.80;99.90
20700;DHT22;10511;51.232;9.420;2023-08-30T12:45:43;18.80;99.90
20700;DHT22;10511;51.232;9.420;2023-08-30T12:48:11;18.80;99.90
20700;DHT22;10511;51.232;9.420;2023-08-30T12:50:41;18.80;99.90
20700;DHT22;10511;51.232;9.420;2023-08-30T12:53:09;18.70;99.90
20700;DHT22;10511;51.232;9.420;2023-08-30T12:55:36;18.70;99.90
20700;DHT22;10511;51.232;9.420;2023-08-30T12:58:04;18.60;99.90
20700;DHT22;10511;51.232;9.420;2023-08-30T13:00:32;18.60;99.90
20700;DHT22;10511;51.232;9.420;2023-08-30T13:02:59;18.60;99.90
20700;DHT22;10511;51.232;9.420;2023-08-30T13:05:26;18.60;99.90
20700;DHT22;10511;51.232;9.420;2023-08-30T13:07:55;18.70;99.90
20700;DHT22;10511;51.232;9.420;2023-08-30T13:10:21;18.80;99.90
20700;DHT22;10511;51.232;9.420;2023-08-30T13:12:48;19.00;99.90
20700;DHT22;10511;51.232;9.420;2023-08-30T13:15:16;19.10;99.90
20700;DHT22;10511;51.232;9.420;2023-08-30T13:17:43;19.30;99.90
20700;DHT22;10511;51.232;9.420;2023-08-30T13:20:10;19.40;99.90
20700;DHT22;10511;51.232;9.420;2023-08-30T13:22:37;19.50;99.90
20700;DHT22;10511;51.232;9.420;2023-08-30T13:25:07;19.60;99.90
20700;DHT22;10511;51.232;9.420;2023-08-30T13:27:34;19.70;99.90
20700;DHT22;10511;51.232;9.420;2023-08-30T13:30:01;19.70;99.90
20700;DHT22;10511;51.232;9.420;2023-08-30T13:32:28;19.80;99.90
20700;DHT22;10511;51.232;9.420;2023-08-30T13:34:55;19.90;99.90
20700;DHT22;10511;51.232;9.420;2023-08-30T13:37:22;19.90;99.90
20700;DHT22;10511;51.232;9.420;2023-08-30T13:39:50;19.80;99.90
20700;DHT22;10511;51.232;9.420;2023-08-30T13:42:18;19.90;99.90
20700;DHT22;10511;51.232;9.420;2023-08-30T13:44:46;20.00;99.90
20700;DHT22;10511;51.232;9.420;2023-08-30T13:47:13;20.10;99.90
20700;DHT22;10511;51.232;9.420;2023-08-30T13:49:42;20.10;99.90
20700;DHT22;10511;51.232;9.420;2023-08-30T13:52:09;20.00;99.90
20700;DHT22;10511;51.232;9.420;2023-08-30T13:54:35;20.00;99.90
20700;DHT22;10511;51.232;9.420;2023-08-30T13:57:02;20.00;99.90
20700;DHT22;10511;51.232;9.420;2023-08-30T13:59:31;20.10;99.90
20700;DHT22;10511;51.232;9.420;2023-08-30T14:01:58;20.20;99.90
20700;DHT22;10511;51.232;9.420;2023-08-30T14:04:25;20.20;99.90
20700;DHT22;10511;51.232;9.420;2023-08-30T14:06:52;20.20;99.90
20700;DHT22;10511;51.232;9.420;2023-08-30T14:09:19;20.20;99.90
20700;DHT22;10511;51.232;9.420;2023-08-30T14:11:46;20.40;99.90
20700;DHT22;10511;51.232;9.420;2023-08-30T14:14:13;20.60;99.90
20700;DHT22;10511;51.232;9.420;2023-08-30T14:16:41;20.60;99.90
20700;DHT22;10511;51.232;9.420;2023-08-30T14:19:08;20.50;99.90
20700;DHT22;10511;51.232;9.420;2023-08-30T14:21:35;20.40;99.90
20700;DHT22;10511;51.232;9.420;2023-08-30T14:24:02;20.40;99.90
20700;DHT22;10511;51.232;9.420;2023-08-30T14:26:29;20.30;99.90
20700;DHT22;10511;51.232;9.420;2023-08-30T14:28:56;20.20;99.90
20700;DHT22;10511;51.232;9.420;2023-08-30T14:31:23;20.30;99.90
20700;DHT22;10511;51.232;9.420;2023-08-30T14:33:55;20.40;99.90
20700;DHT22;10511;51.232;9.420;2023-08-30T14:36:23;20.40;99.90
20700;DHT22;10511;51.232;9.420;2023-08-30T14:38:50;20.30;99.90
20700;DHT22;10511;51.232;9.420;2023-08-30T14:41:17;20.20;99.90
20700;DHT22;10511;51.232;9.420;2023-08-30T14:43:44;20.20;99.90
20700;DHT22;10511;51.232;9.420;2023-08-30T14:46:11;20.00;99.90
20700;DHT22;10511;51.232;9.420;2023-08-30T14:48:39;19.80;99.90
20700;DHT22;10511;51.232;9.420;2023-08-30T14:51:08;19.60;99.90
20700;DHT22;10511;51.232;9.420;2023-08-30T14:53:35;19.50;99.90
20700;DHT22;10511;51.232;9.420;2023-08-30T14:56:02;19.40;99.90
20700;DHT22;10511;51.232;9.420;2023-08-30T14:58:32;19.30;99.90
20700;DHT22;10511;51.232;9.420;2023-08-30T15:01:00;19.20;99.90
20700;DHT22;10511;51.232;9.420;2023-08-30T15:03:27;19.20;99.90
20700;DHT22;10511;51.232;9.420;2023-08-30T15:05:54;19.10;99.90
20700;DHT22;10511;51.232;9.420;2023-08-30T15:08:26;19.10;99.90
20700;DHT22;10511;51.232;9.420;2023-08-30T15:10:53;19.10;99.90
20700;DHT22;10511;51.232;9.420;2023-08-30T15:13:20;19.00;99.90
20700;DHT22;10511;51.232;9.420;2023-08-30T15:15:47;19.00;99.90
20700;DHT22;10511;51.232;9.420;2023-08-30T15:18:14;19.00;99.90
20700;DHT22;10511;51.232;9.420;2023-08-30T15:20:41;18.90;99.90
20700;DHT22;10511;51.232;9.420;2023-08-30T15:23:12;18.80;99.90
20700;DHT22;10511;51.232;9.420;2023-08-30T15:25:50;18.60;99.90
20700;DHT22;10511;51.232;9.420;2023-08-30T15:28:17;18.00;99.90
20700;DHT22;10511;51.232;9.420;2023-08-30T15:30:45;17.90;99.90
20700;DHT22;10511;51.232;9.420;2023-08-30T15:33:12;17.90;99.90
20700;DHT22;10511;51.232;9.420;2023-08-30T15:35:40;17.80;99.90